createdAt,value
2022-11-17T00:01:05.290Z,2.97
2022-11-17T00:03:31.617Z,2.90
2022-11-17T00:06:02.105Z,3.03
2022-11-17T00:08:28.341Z,2.58
2022-11-17T00:10:54.551Z,2.78
2022-11-17T00:13:39.373Z,3.35
2022-11-17T00:16:05.716Z,2.85
2022-11-17T00:18:50.421Z,3.25
2022-11-17T00:21:21.445Z,3.25
2022-11-17T00:23:48.467Z,2.88
2022-11-17T00:26:15.831Z,3.38
2022-11-17T00:28:42.124Z,3.40
2022-11-17T00:31:28.850Z,3.78
2022-11-17T00:34:07.237Z,3.22
2022-11-17T00:36:39.028Z,3.65
2022-11-17T00:39:05.983Z,3.50
2022-11-17T00:41:32.239Z,4.07
2022-11-17T00:43:58.650Z,3.55
2022-11-17T00:46:25.040Z,3.53
2022-11-17T00:48:51.322Z,3.80
2022-11-17T00:51:17.927Z,3.80
2022-11-17T00:53:44.185Z,3.58
2022-11-17T00:56:10.604Z,3.13
2022-11-17T00:58:36.831Z,3.35
2022-11-17T01:01:03.254Z,3.35
2022-11-17T01:03:29.606Z,3.53
2022-11-17T01:05:55.898Z,3.90
2022-11-17T01:08:22.166Z,3.20
2022-11-17T01:10:48.382Z,3.25
2022-11-17T01:13:16.915Z,3.35
2022-11-17T01:15:43.122Z,3.22
2022-11-17T01:18:10.997Z,3.15
2022-11-17T01:20:37.206Z,3.75
2022-11-17T01:23:03.518Z,3.45
2022-11-17T01:25:30.602Z,3.30
2022-11-17T01:27:56.886Z,2.78
2022-11-17T01:30:23.104Z,3.65
2022-11-17T01:32:49.338Z,3.65
2022-11-17T01:35:15.646Z,3.72
2022-11-17T01:37:41.891Z,3.80
2022-11-17T01:40:09.773Z,4.38
2022-11-17T01:42:36.007Z,4.55
2022-11-17T01:45:04.141Z,2.92
2022-11-17T01:47:35.947Z,3.60
2022-11-17T01:50:11.071Z,3.25
2022-11-17T01:52:39.048Z,3.50
2022-11-17T01:55:06.574Z,3.40
2022-11-17T01:57:34.838Z,3.70
2022-11-17T02:00:02.417Z,3.30
2022-11-17T02:02:28.740Z,3.10
2022-11-17T02:05:01.446Z,3.08
2022-11-17T02:07:29.631Z,3.00
2022-11-17T02:09:56.174Z,2.08
2022-11-17T02:12:24.587Z,2.10
2022-11-17T02:14:51.281Z,1.70
2022-11-17T02:17:18.205Z,2.05
2022-11-17T02:19:46.619Z,2.28
2022-11-17T02:22:26.338Z,2.20
2022-11-17T02:24:52.538Z,2.58
2022-11-17T02:27:27.576Z,2.05
2022-11-17T02:29:56.823Z,2.15
2022-11-17T02:32:35.409Z,2.03
2022-11-17T02:35:07.734Z,1.95
2022-11-17T02:37:41.252Z,2.00
2022-11-17T02:40:10.253Z,2.03
2022-11-17T02:43:00.324Z,2.03
2022-11-17T02:45:29.925Z,1.90
2022-11-17T02:47:57.875Z,2.13
2022-11-17T02:50:28.523Z,2.10
2022-11-17T02:55:21.307Z,1.70
2022-11-17T02:57:47.532Z,2.00
2022-11-17T03:00:17.387Z,1.95
2022-11-17T03:02:55.606Z,1.85
2022-11-17T03:05:31.026Z,1.50
2022-11-17T03:07:57.214Z,1.70
2022-11-17T03:10:38.769Z,1.90
2022-11-17T03:13:23.859Z,2.40
2022-11-17T03:15:55.215Z,1.95
2022-11-17T03:18:21.413Z,1.90
2022-11-17T03:20:47.598Z,1.58
2022-11-17T03:23:17.497Z,1.85
2022-11-17T03:25:45.742Z,1.70
2022-11-17T03:28:12.340Z,1.60
2022-11-17T03:30:40.616Z,1.70
2022-11-17T03:33:08.535Z,1.77
2022-11-17T03:35:35.991Z,1.90
2022-11-17T03:38:07.176Z,1.70
2022-11-17T03:40:35.493Z,2.20
2022-11-17T03:43:03.944Z,1.92
2022-11-17T03:45:38.949Z,1.80
2022-11-17T03:48:18.202Z,1.92
2022-11-17T03:51:09.085Z,1.77
2022-11-17T03:53:36.054Z,1.95
2022-11-17T03:56:21.481Z,1.67
2022-11-17T03:59:01.479Z,1.77
2022-11-17T04:01:29.060Z,1.70
2022-11-17T04:03:55.324Z,2.42
2022-11-17T04:06:21.576Z,2.10
2022-11-17T04:08:48.015Z,1.83
2022-11-17T04:11:32.989Z,1.73
2022-11-17T04:14:18.196Z,1.73
2022-11-17T04:16:44.471Z,1.73
2022-11-17T04:19:10.710Z,1.77
2022-11-17T04:21:36.987Z,1.80
2022-11-17T04:24:03.285Z,1.50
2022-11-17T04:26:48.379Z,1.60
2022-11-17T04:29:14.710Z,1.60
2022-11-17T04:31:40.977Z,1.95
2022-11-17T04:34:07.835Z,1.70
2022-11-17T04:36:40.018Z,1.70
2022-11-17T04:39:06.444Z,2.10
2022-11-17T04:41:52.807Z,1.75
2022-11-17T04:44:20.709Z,1.60
2022-11-17T04:46:47.002Z,1.70
2022-11-17T04:49:14.345Z,1.67
2022-11-17T04:51:40.852Z,1.42
2022-11-17T04:54:07.871Z,1.52
2022-11-17T04:56:34.143Z,1.35
2022-11-17T04:59:00.433Z,1.25
2022-11-17T05:01:27.545Z,1.30
2022-11-17T05:03:54.939Z,1.38
2022-11-17T05:06:24.737Z,1.40
2022-11-17T05:08:55.372Z,1.42
2022-11-17T05:11:41.335Z,1.40
2022-11-17T05:14:07.744Z,1.52
2022-11-17T05:16:52.514Z,1.40
2022-11-17T05:19:22.899Z,1.65
2022-11-17T05:21:49.300Z,1.20
2022-11-17T05:24:15.745Z,1.50
2022-11-17T05:26:42.806Z,1.60
2022-11-17T05:29:09.644Z,1.70
2022-11-17T05:31:36.442Z,1.83
2022-11-17T05:34:03.537Z,1.80
2022-11-17T05:36:30.352Z,2.05
2022-11-17T05:38:56.708Z,2.33
2022-11-17T05:41:23.622Z,2.25
2022-11-17T05:43:50.470Z,2.08
2022-11-17T05:46:19.737Z,2.00
2022-11-17T05:48:46.834Z,2.35
2022-11-17T05:51:13.071Z,2.10
2022-11-17T05:53:39.273Z,2.15
2022-11-17T05:56:11.720Z,2.17
2022-11-17T05:58:40.037Z,1.90
2022-11-17T06:01:06.747Z,1.85
2022-11-17T06:03:35.279Z,2.17
2022-11-17T06:06:01.748Z,2.03
2022-11-17T06:08:29.135Z,2.00
2022-11-17T06:10:56.366Z,2.20
2022-11-17T06:13:28.861Z,2.00
2022-11-17T06:15:56.084Z,1.50
2022-11-17T06:18:24.798Z,1.90
2022-11-17T06:20:53.427Z,1.65
2022-11-17T06:23:20.818Z,1.75
2022-11-17T06:25:47.230Z,1.55
2022-11-17T06:28:15.030Z,1.42
2022-11-17T06:30:42.027Z,1.38
2022-11-17T06:33:09.931Z,1.70
2022-11-17T06:35:36.419Z,2.22
2022-11-17T06:38:02.979Z,2.08
2022-11-17T06:40:29.294Z,1.48
2022-11-17T06:43:08.556Z,1.42
2022-11-17T06:45:43.240Z,1.38
2022-11-17T06:48:10.437Z,1.33
2022-11-17T06:50:36.926Z,1.48
2022-11-17T06:53:04.553Z,0.85
2022-11-17T06:55:31.167Z,1.20
2022-11-17T06:58:07.723Z,1.38
2022-11-17T07:00:35.344Z,1.05
2022-11-17T07:03:01.794Z,1.35
2022-11-17T07:05:28.100Z,1.35
2022-11-17T07:07:56.857Z,1.25
2022-11-17T07:10:23.145Z,1.40
2022-11-17T07:12:49.448Z,1.35
2022-11-17T07:15:15.758Z,1.40
2022-11-17T07:17:42.084Z,1.17
2022-11-17T07:20:08.709Z,1.40
2022-11-17T07:22:35.012Z,1.73
2022-11-17T07:25:01.327Z,1.10
2022-11-17T07:27:27.588Z,1.00
2022-11-17T07:29:53.921Z,1.40
2022-11-17T07:32:20.395Z,1.52
2022-11-17T07:34:46.749Z,1.85
2022-11-17T07:37:13.145Z,1.45
2022-11-17T07:39:39.420Z,0.90
2022-11-17T07:42:05.762Z,1.20
2022-11-17T07:44:32.138Z,0.98
2022-11-17T07:46:58.522Z,1.05
2022-11-17T07:49:25.948Z,1.10
2022-11-17T07:51:52.282Z,1.30
2022-11-17T07:54:18.647Z,0.60
2022-11-17T07:56:44.992Z,0.43
2022-11-17T07:59:11.557Z,0.47
2022-11-17T08:01:37.915Z,1.10
2022-11-17T08:04:04.617Z,0.70
2022-11-17T08:06:31.173Z,0.50
2022-11-17T08:08:57.638Z,0.80
2022-11-17T08:11:23.933Z,0.80
2022-11-17T08:13:50.840Z,0.70
2022-11-17T08:16:17.131Z,0.70
2022-11-17T08:18:48.806Z,0.70
2022-11-17T08:21:18.789Z,1.13
2022-11-17T08:23:45.049Z,0.60
2022-11-17T08:26:11.755Z,0.80
2022-11-17T08:28:38.578Z,1.35
2022-11-17T08:31:06.265Z,1.00
2022-11-17T08:33:33.105Z,1.23
2022-11-17T08:36:00.153Z,0.88
2022-11-17T08:38:29.084Z,0.95
2022-11-17T08:40:58.865Z,0.93
2022-11-17T08:43:25.393Z,1.00
2022-11-17T08:45:51.721Z,0.80
2022-11-17T08:48:18.100Z,1.00
2022-11-17T08:50:44.575Z,1.00
2022-11-17T08:53:18.335Z,1.38
2022-11-17T08:55:45.237Z,0.60
2022-11-17T08:58:12.316Z,0.70
2022-11-17T09:00:39.476Z,0.70
2022-11-17T09:03:06.799Z,1.17
2022-11-17T09:05:35.329Z,1.15
2022-11-17T09:08:16.399Z,0.65
2022-11-17T09:10:49.347Z,0.93
2022-11-17T09:13:18.575Z,0.90
2022-11-17T09:15:45.125Z,0.88
2022-11-17T09:18:11.376Z,1.30
2022-11-17T09:20:42.742Z,0.80
2022-11-17T09:23:11.721Z,0.68
2022-11-17T09:25:38.057Z,1.08
2022-11-17T09:28:04.591Z,0.82
2022-11-17T09:30:30.878Z,0.90
2022-11-17T09:32:57.813Z,0.73
2022-11-17T09:35:24.133Z,0.80
2022-11-17T09:37:50.432Z,1.00
2022-11-17T09:40:18.493Z,1.20
2022-11-17T09:42:45.079Z,0.95
2022-11-17T09:45:18.255Z,0.95
2022-11-17T09:47:50.341Z,1.00
2022-11-17T09:50:22.924Z,0.80
2022-11-17T09:52:54.349Z,1.10
2022-11-17T09:55:34.317Z,0.85
2022-11-17T09:58:21.213Z,0.95
2022-11-17T10:00:48.888Z,1.00
2022-11-17T10:03:19.888Z,0.75
2022-11-17T10:05:46.575Z,1.48
2022-11-17T10:08:15.413Z,1.08
2022-11-17T10:10:46.466Z,0.77
2022-11-17T10:13:24.866Z,0.70
2022-11-17T10:16:00.024Z,0.85
2022-11-17T10:18:27.255Z,0.57
2022-11-17T10:20:53.562Z,1.05
2022-11-17T10:23:19.928Z,0.90
2022-11-17T10:25:47.513Z,0.90
2022-11-17T10:28:24.356Z,1.48
2022-11-17T10:30:54.764Z,0.80
2022-11-17T10:33:33.188Z,0.90
2022-11-17T10:35:59.744Z,1.10
2022-11-17T10:38:28.880Z,0.70
2022-11-17T10:40:57.948Z,0.95
2022-11-17T10:43:26.457Z,0.70
2022-11-17T10:45:57.437Z,1.10
2022-11-17T10:48:28.720Z,0.80
2022-11-17T10:51:01.117Z,0.90
2022-11-17T10:53:35.787Z,1.50
2022-11-17T10:56:12.780Z,1.20
2022-11-17T10:58:54.408Z,1.00
2022-11-17T11:01:31.623Z,0.93
2022-11-17T11:03:58.180Z,1.00
2022-11-17T11:06:26.711Z,1.08
2022-11-17T11:08:52.983Z,1.27
2022-11-17T11:11:34.871Z,1.00
2022-11-17T11:14:06.516Z,1.63
2022-11-17T11:16:32.744Z,1.10
2022-11-17T11:18:59.148Z,1.25
2022-11-17T11:21:44.025Z,0.93
2022-11-17T11:24:17.618Z,0.90
2022-11-17T11:26:46.741Z,1.10
2022-11-17T11:29:21.927Z,1.58
2022-11-17T11:32:00.378Z,1.10
2022-11-17T11:34:38.269Z,0.90
2022-11-17T11:37:15.005Z,1.13
2022-11-17T11:39:53.517Z,0.82
2022-11-17T11:42:38.655Z,1.00
2022-11-17T11:45:14.048Z,0.80
2022-11-17T11:47:59.357Z,1.10
2022-11-17T11:50:27.056Z,1.00
2022-11-17T11:53:03.633Z,1.17
2022-11-17T11:55:36.500Z,0.90
2022-11-17T11:58:08.710Z,1.20
2022-11-17T12:00:35.084Z,0.68
2022-11-17T12:03:11.887Z,1.08
2022-11-17T12:05:56.148Z,1.05
2022-11-17T12:08:32.186Z,1.20
2022-11-17T12:11:46.403Z,1.00
2022-11-17T12:14:15.902Z,1.58
2022-11-17T12:16:44.452Z,1.40
2022-11-17T12:19:29.304Z,1.00
2022-11-17T12:21:55.966Z,0.98
2022-11-17T12:24:29.641Z,1.08
2022-11-17T12:27:15.839Z,1.00
2022-11-17T12:29:46.081Z,1.23
2022-11-17T12:32:32.281Z,1.08
2022-11-17T12:35:17.471Z,1.13
2022-11-17T12:37:43.783Z,1.23
2022-11-17T12:40:30.253Z,0.90
2022-11-17T12:43:14.804Z,1.20
2022-11-17T12:45:54.332Z,1.48
2022-11-17T12:48:33.533Z,1.13
2022-11-17T12:51:19.756Z,0.80
2022-11-17T12:53:59.645Z,1.77
2022-11-17T12:56:36.948Z,1.10
2022-11-17T12:59:12.325Z,1.33
2022-11-17T13:01:57.531Z,0.95
2022-11-17T13:04:30.087Z,1.25
2022-11-17T13:07:04.034Z,1.65
2022-11-17T13:09:31.992Z,1.30
2022-11-17T13:12:01.747Z,1.25
2022-11-17T13:14:28.034Z,1.33
2022-11-17T13:16:54.315Z,1.58
2022-11-17T13:19:23.650Z,1.20
2022-11-17T13:21:57.403Z,1.17
2022-11-17T13:24:35.141Z,1.10
2022-11-17T13:27:02.673Z,1.02
2022-11-17T13:29:28.981Z,1.17
2022-11-17T13:32:14.774Z,1.30
2022-11-17T13:34:48.528Z,1.20
2022-11-17T13:37:16.309Z,1.10
2022-11-17T13:39:53.199Z,1.35
2022-11-17T13:42:19.851Z,0.90
2022-11-17T13:44:46.486Z,1.10
2022-11-17T13:47:20.911Z,1.10
2022-11-17T13:49:47.664Z,1.30
2022-11-17T13:52:28.658Z,1.10
2022-11-17T13:54:58.856Z,1.30
2022-11-17T13:57:26.969Z,0.98
2022-11-17T13:59:53.642Z,1.52
2022-11-17T14:02:19.859Z,1.52
2022-11-17T14:05:04.958Z,1.30
2022-11-17T14:07:32.498Z,1.65
2022-11-17T14:10:17.693Z,1.25
2022-11-17T14:12:43.924Z,1.05
2022-11-17T14:15:34.396Z,1.30
2022-11-17T14:18:01.892Z,1.20
2022-11-17T14:20:32.439Z,1.10
2022-11-17T14:23:19.095Z,1.20
2022-11-17T14:25:48.121Z,1.30
2022-11-17T14:28:15.212Z,1.35
2022-11-17T14:30:41.843Z,1.40
2022-11-17T14:33:13.422Z,1.27
2022-11-17T14:35:40.259Z,1.50
2022-11-17T14:38:09.127Z,1.30
2022-11-17T14:40:35.409Z,1.30
2022-11-17T14:43:01.715Z,0.93
2022-11-17T14:45:28.327Z,1.08
2022-11-17T14:47:54.571Z,1.30
2022-11-17T14:50:20.876Z,1.30
2022-11-17T14:52:47.212Z,1.00
2022-11-17T14:55:14.167Z,1.17
2022-11-17T14:57:40.899Z,1.30
2022-11-17T15:00:08.526Z,0.90
2022-11-17T15:02:35.772Z,1.05
2022-11-17T15:05:02.540Z,1.40
2022-11-17T15:07:28.952Z,1.23
2022-11-17T15:09:55.291Z,2.55
2022-11-17T15:12:21.943Z,2.33
2022-11-17T15:14:48.402Z,1.35
2022-11-17T15:17:14.926Z,0.90
2022-11-17T15:19:41.502Z,1.10
2022-11-17T15:22:07.821Z,1.10
2022-11-17T15:24:34.101Z,1.00
2022-11-17T15:27:00.429Z,1.13
2022-11-17T15:29:26.667Z,1.10
2022-11-17T15:31:53.619Z,1.40
2022-11-17T15:34:21.096Z,1.00
2022-11-17T15:36:47.835Z,1.50
2022-11-17T15:39:14.731Z,1.17
2022-11-17T15:41:41.245Z,1.38
2022-11-17T15:44:07.565Z,1.42
2022-11-17T15:46:33.862Z,1.33
2022-11-17T15:49:00.146Z,1.20
2022-11-17T15:51:27.309Z,1.52
2022-11-17T15:53:57.615Z,1.13
2022-11-17T15:56:25.256Z,1.58
2022-11-17T15:58:55.358Z,1.50
2022-11-17T16:01:30.670Z,1.20
2022-11-17T16:03:58.154Z,1.23
2022-11-17T16:06:24.449Z,1.05
2022-11-17T16:08:50.838Z,0.98
2022-11-17T16:11:17.086Z,1.30
2022-11-17T16:13:43.343Z,1.15
2022-11-17T16:16:12.728Z,2.08
2022-11-17T16:18:39.086Z,1.60
2022-11-17T16:21:06.609Z,1.17
2022-11-17T16:23:42.104Z,1.27
2022-11-17T16:26:08.992Z,0.93
2022-11-17T16:28:35.370Z,1.42
2022-11-17T16:31:11.140Z,1.20
2022-11-17T16:33:37.824Z,1.10
2022-11-17T16:36:05.167Z,1.20
2022-11-17T16:38:31.398Z,0.88
2022-11-17T16:41:01.578Z,1.05
2022-11-17T16:43:27.829Z,1.10
2022-11-17T16:45:54.061Z,1.13
2022-11-17T16:48:20.302Z,0.90
2022-11-17T16:50:46.851Z,1.30
2022-11-17T16:53:14.111Z,1.27
2022-11-17T16:55:40.428Z,1.30
2022-11-17T16:58:07.300Z,1.50
2022-11-17T17:00:34.750Z,1.08
2022-11-17T17:03:01.544Z,0.75
2022-11-17T17:05:30.733Z,1.17
2022-11-17T17:07:57.096Z,0.90
2022-11-17T17:10:23.982Z,1.40
2022-11-17T17:12:50.369Z,1.30
2022-11-17T17:15:16.767Z,0.95
2022-11-17T17:17:43.064Z,1.15
2022-11-17T17:20:09.927Z,1.02
2022-11-17T17:22:36.212Z,1.40
2022-11-17T17:25:03.685Z,1.45
2022-11-17T17:27:31.179Z,1.10
2022-11-17T17:29:57.598Z,1.15
2022-11-17T17:32:23.842Z,1.40
2022-11-17T17:34:50.116Z,1.10
2022-11-17T17:37:16.771Z,1.00
2022-11-17T17:39:43.057Z,1.40
2022-11-17T17:42:09.388Z,1.05
2022-11-17T17:44:35.723Z,1.15
2022-11-17T17:47:02.041Z,1.17
2022-11-17T17:49:28.441Z,0.98
2022-11-17T17:51:54.779Z,1.30
2022-11-17T17:54:23.855Z,1.02
2022-11-17T17:56:50.163Z,1.05
2022-11-17T17:59:17.107Z,1.00
2022-11-17T18:01:45.923Z,1.00
2022-11-17T18:04:15.892Z,1.02
2022-11-17T18:06:45.999Z,0.80
2022-11-17T18:09:14.352Z,1.10
2022-11-17T18:11:45.769Z,1.25
2022-11-17T18:14:13.054Z,1.23
2022-11-17T18:16:39.308Z,2.90
2022-11-17T18:19:06.679Z,2.83
2022-11-17T18:21:33.044Z,2.08
2022-11-17T18:24:01.126Z,2.30
2022-11-17T18:26:29.174Z,3.53
2022-11-17T18:28:59.246Z,5.28
2022-11-17T18:31:26.913Z,4.40
2022-11-17T18:34:00.424Z,2.35
2022-11-17T18:36:26.972Z,1.80
2022-11-17T18:38:53.252Z,1.40
2022-11-17T18:41:20.656Z,1.40
2022-11-17T18:43:46.958Z,1.45
2022-11-17T18:46:14.609Z,1.42
2022-11-17T18:48:42.154Z,1.70
2022-11-17T18:51:25.312Z,2.22
2022-11-17T18:53:52.637Z,1.52
2022-11-17T18:56:20.568Z,1.45
2022-11-17T18:58:47.073Z,1.33
2022-11-17T19:01:16.994Z,1.50
2022-11-17T19:03:44.257Z,1.33
2022-11-17T19:06:11.460Z,1.20
2022-11-17T19:08:37.787Z,1.60
2022-11-17T19:11:06.382Z,1.90
2022-11-17T19:13:33.970Z,1.27
2022-11-17T19:16:04.689Z,1.63
2022-11-17T19:18:30.975Z,1.70
2022-11-17T19:21:07.363Z,1.90
2022-11-17T19:23:34.724Z,1.95
2022-11-17T19:26:05.089Z,1.50
2022-11-17T19:28:31.511Z,1.58
2022-11-17T19:31:02.495Z,1.80
2022-11-17T19:33:29.704Z,1.70
2022-11-17T19:35:56.032Z,1.73
2022-11-17T19:38:22.436Z,1.70
2022-11-17T19:40:48.764Z,1.85
2022-11-17T19:43:17.697Z,1.80
2022-11-17T19:45:43.980Z,1.40
2022-11-17T19:48:10.262Z,1.63
2022-11-17T19:50:36.837Z,1.63
2022-11-17T19:53:03.195Z,1.33
2022-11-17T19:55:29.437Z,1.73
2022-11-17T19:57:55.673Z,1.85
2022-11-17T20:00:22.123Z,2.28
2022-11-17T20:02:48.398Z,2.55
2022-11-17T20:05:14.667Z,2.13
2022-11-17T20:07:40.958Z,2.22
2022-11-17T20:10:07.358Z,1.85
2022-11-17T20:12:34.250Z,1.90
2022-11-17T20:15:00.585Z,1.77
2022-11-17T20:17:26.821Z,2.20
2022-11-17T20:19:53.113Z,1.40
2022-11-17T20:22:19.429Z,1.88
2022-11-17T20:24:45.680Z,1.30
2022-11-17T20:27:12.032Z,1.70
2022-11-17T20:29:38.308Z,1.80
2022-11-17T20:32:04.639Z,1.42
2022-11-17T20:34:30.876Z,2.03
2022-11-17T20:36:57.152Z,2.20
2022-11-17T20:39:23.388Z,1.85
2022-11-17T20:41:49.778Z,1.88
2022-11-17T20:44:25.021Z,1.80
2022-11-17T20:46:55.059Z,1.50
2022-11-17T20:49:22.185Z,2.10
2022-11-17T20:51:48.667Z,2.17
2022-11-17T20:54:15.372Z,1.73
2022-11-17T20:56:41.921Z,1.60
2022-11-17T20:59:08.214Z,1.83
2022-11-17T21:01:34.738Z,1.70
2022-11-17T21:04:01.151Z,2.15
2022-11-17T21:06:27.903Z,2.30
2022-11-17T21:08:54.191Z,2.42
2022-11-17T21:11:40.864Z,2.13
2022-11-17T21:14:08.137Z,1.83
2022-11-17T21:16:34.835Z,2.55
2022-11-17T21:19:01.164Z,1.80
2022-11-17T21:21:27.613Z,2.60
2022-11-17T21:23:54.484Z,2.95
2022-11-17T21:26:21.404Z,2.38
2022-11-17T21:28:47.647Z,2.40
2022-11-17T21:31:15.088Z,2.10
2022-11-17T21:33:41.623Z,2.30
2022-11-17T21:36:09.260Z,2.05
2022-11-17T21:38:35.528Z,2.25
2022-11-17T21:41:05.818Z,2.22
2022-11-17T21:43:32.408Z,2.92
2022-11-17T21:46:02.492Z,2.63
2022-11-17T21:48:28.795Z,2.47
2022-11-17T21:50:55.083Z,2.35
2022-11-17T21:53:21.419Z,2.03
2022-11-17T21:55:47.645Z,2.67
2022-11-17T21:58:14.594Z,2.78
2022-11-17T22:00:40.888Z,2.63
2022-11-17T22:03:07.176Z,2.45
2022-11-17T22:05:33.496Z,2.72
2022-11-17T22:07:59.966Z,2.67
2022-11-17T22:10:26.260Z,2.70
2022-11-17T22:12:52.481Z,2.50
2022-11-17T22:15:18.715Z,2.50
2022-11-17T22:17:44.943Z,2.83
2022-11-17T22:20:11.262Z,2.58
2022-11-17T22:22:37.628Z,2.85
2022-11-17T22:25:29.770Z,2.42
2022-11-17T22:27:50.299Z,2.63
2022-11-17T22:30:16.589Z,2.78
2022-11-17T22:32:45.391Z,2.50
2022-11-17T22:35:11.884Z,2.45
2022-11-17T22:37:38.172Z,2.47
2022-11-17T22:40:04.584Z,2.72
2022-11-17T22:42:30.848Z,2.70
2022-11-17T22:44:57.111Z,2.70
2022-11-17T22:47:23.391Z,2.25
2022-11-17T22:49:49.695Z,2.47
2022-11-17T22:52:15.995Z,2.40
2022-11-17T22:54:42.450Z,2.60
2022-11-17T22:57:08.787Z,2.42
2022-11-17T22:59:35.030Z,2.70
2022-11-17T23:02:01.369Z,2.47
2022-11-17T23:04:27.681Z,2.38
2022-11-17T23:06:53.995Z,2.80
2022-11-17T23:09:20.332Z,2.38
2022-11-17T23:11:46.651Z,2.40
2022-11-17T23:14:13.825Z,2.97
2022-11-17T23:16:40.233Z,2.67
2022-11-17T23:19:06.867Z,2.40
2022-11-17T23:21:33.296Z,3.05
2022-11-17T23:23:59.625Z,2.60
2022-11-17T23:26:25.945Z,2.70
2022-11-17T23:28:52.644Z,3.10
2022-11-17T23:31:18.941Z,2.63
2022-11-17T23:33:46.447Z,2.75
2022-11-17T23:36:14.062Z,2.78
2022-11-17T23:38:40.613Z,2.80
2022-11-17T23:41:07.730Z,3.20
2022-11-17T23:43:34.041Z,2.97
2022-11-17T23:46:04.595Z,3.10
2022-11-17T23:48:30.918Z,2.90
2022-11-17T23:50:57.220Z,2.53
2022-11-17T23:53:23.624Z,2.55
2022-11-17T23:55:56.487Z,2.45
2022-11-17T23:58:23.420Z,2.80
